Hines, Minnesota
Current Conditions -  °F | °C
As of 8:13 AM on Monday 20 Oct 2014 (Local Time) from KBJI Reporting Station
Clear Clear  
Wind Chill: 30°   Ceiling: Unl
Heat Index: 36°   Visibility: 10mi
Dew Point: 36°   Wind: 7mph
Humidity: 99%   Direction: 290°WNW
Pressure: 30"   Gusts: NA
Location:  47.69°N, 94.63°W
Report Text: KBJI 201313Z AUTO 29006KT 10SM CLR 02/02 A3000 RMK AO2 T00210020
Loading
Personal Weather Stations






























Interactive Weather Map
Tropical Storm Tracking
New forecast layout! Learn more

10-Day Weather Forecast

Advertisements
Track Severe Weather on mobile